Alburtis, Pennsylvania
Current Conditions -  °F | °C
As of 7:55 PM on Wednesday 17 Dec 2014 (Local Time) from KXLL Reporting Station
Overcast Overcast  
Wind Chill: 34°   Ceiling: 4600
Heat Index: 41°   Visibility: 10mi
Dew Point: 28°   Wind: 12mph
Humidity: 61%   Direction: 290°WNW
Pressure: 29.96"   Gusts: 17mph
Location:  40.51°N, 75.6°W
Report Text: KXLL 180055Z AUTO 29010G15KT 10SM SCT037 OVC046 05/M02 A2996 RMK AO2
Loading
Personal Weather Stations






























Interactive Weather Map New forecast layout! Learn more

10-Day Weather Forecast

Advertisements
Track Severe Weather on mobile